This is the latest recevied weather packets stored in our database for station/object K8JCL-13. If no packets are shown the sender has not sent any weather packets the latest 10 day(s).
| Time | Temp. | Humidity | Pressure | Rain* | Wind** | Luminosity | Snow |
|---|---|---|---|---|---|---|---|
| 1776967100 | 27.78° C | 47% | 1015 hPa | 0 mm | - | 695 W/m² | - |
| 1776966796 | 28.33° C | 46% | 1015 hPa | 0 mm | - | 730 W/m² | - |
| 1776966493 | 27.78° C | 48% | 1015 hPa | 0 mm | - | 730 W/m² | - |
| 1776966189 | 26.67° C | 49% | 1015.3 hPa | 0 mm | - | 693 W/m² | - |
| 1776965889 | 25.56° C | 54% | 1015.5 hPa | 0 mm | - | 636 W/m² | - |
| 1776965587 | 25° C | 51% | 1015.4 hPa | 0 mm | - | 706 W/m² | - |
| 1776965284 | 25.56° C | 53% | 1015.5 hPa | 0 mm | - | 151 W/m² | - |
| 1776964982 | 25° C | 50% | 1015.6 hPa | 0 mm | - | 165 W/m² | - |
| 1776964676 | 25.56° C | 51% | 1015.7 hPa | 0 mm | - | 756 W/m² | - |
| 1776964376 | 25.56° C | 53% | 1015.7 hPa | 0 mm | - | 716 W/m² | - |
| 1776964075 | 25.56° C | 51% | 1015.8 hPa | 0 mm | - | 337 W/m² | - |
| 1776963770 | 25.56° C | 52% | 1015.8 hPa | 0 mm | - | 598 W/m² | - |
| 1776963464 | 25° C | 55% | 1016 hPa | 0 mm | - | 733 W/m² | - |
| 1776963162 | 25° C | 53% | 1015.7 hPa | 0 mm | - | 201 W/m² | - |
| 1776962857 | 25° C | 54% | 1016 hPa | 0 mm | - | 204 W/m² | - |
| 1776962554 | 25° C | 54% | 1016.1 hPa | 0 mm | - | 738 W/m² | - |
| 1776962251 | 25.56° C | 53% | 1016 hPa | 0 mm | - | 664 W/m² | - |
| 1776961947 | 25.56° C | 53% | 1016.2 hPa | 0 mm | - | 707 W/m² | - |
| 1776961646 | 25° C | 57% | 1016.2 hPa | 0 mm | - | 156 W/m² | - |
| 1776961344 | 25° C | 62% | 1016.4 hPa | 0 mm | - | 677 W/m² | - |
| 1776961040 | 23.89° C | 57% | 1016.3 hPa | 0 mm | - | 669 W/m² | - |
| 1776960736 | 23.89° C | 59% | 1016.4 hPa | 0 mm | - | 465 W/m² | - |
| 1776960435 | 23.89° C | 57% | 1016.3 hPa | 0 mm | - | 139 W/m² | - |
| 1776960135 | 25° C | 57% | 1016.5 hPa | 0 mm | - | 151 W/m² | - |
| 1776959831 | 26.67° C | 52% | 1016.3 hPa | 0 mm | - | 149 W/m² | - |
* Rain latest hour (hover to see other rain measurements)
** Current wind speed in m/s (hover to see current wind gust speed)